sensor_id;sensor_type;location;lat;lon;timestamp;pressure;altitude;pressure_sealevel;temperature;humidity
76637;BME280;65532;52.124;5.480;2023-02-01T00:00:27;101941.19;;;4.05;89.44
76637;BME280;65532;52.124;5.480;2023-02-01T00:02:53;101946.41;;;4.14;89.38
76637;BME280;65532;52.124;5.480;2023-02-01T00:05:20;101937.22;;;4.17;89.17
76637;BME280;65532;52.124;5.480;2023-02-01T00:07:47;101933.88;;;4.23;89.12
76637;BME280;65532;52.124;5.480;2023-02-01T00:10:15;101939.22;;;4.23;89.18
76637;BME280;65532;52.124;5.480;2023-02-01T00:12:41;101932.53;;;4.19;89.60
76637;BME280;65532;52.124;5.480;2023-02-01T00:15:08;101936.88;;;4.20;89.18
76637;BME280;65532;52.124;5.480;2023-02-01T00:17:34;101943.75;;;4.22;89.86
76637;BME280;65532;52.124;5.480;2023-02-01T00:20:01;101941.91;;;4.23;89.21
76637;BME280;65532;52.124;5.480;2023-02-01T00:22:28;101933.56;;;4.26;89.69
76637;BME280;65532;52.124;5.480;2023-02-01T00:24:54;101931.22;;;4.31;89.76
76637;BME280;65532;52.124;5.480;2023-02-01T00:27:21;101927.88;;;4.37;89.17
76637;BME280;65532;52.124;5.480;2023-02-01T00:29:47;101928.25;;;4.42;89.41
76637;BME280;65532;52.124;5.480;2023-02-01T00:32:14;101921.19;;;4.41;89.42
76637;BME280;65532;52.124;5.480;2023-02-01T00:34:40;101921.19;;;4.41;89.81
76637;BME280;65532;52.124;5.480;2023-02-01T00:37:07;101923.72;;;4.43;89.71
76637;BME280;65532;52.124;5.480;2023-02-01T00:39:33;101919.22;;;4.43;89.26
76637;BME280;65532;52.124;5.480;2023-02-01T00:42:00;101922.56;;;4.45;89.77
76637;BME280;65532;52.124;5.480;2023-02-01T00:44:28;101934.63;;;4.49;89.19
76637;BME280;65532;52.124;5.480;2023-02-01T00:46:59;101928.94;;;4.53;89.21
76637;BME280;65532;52.124;5.480;2023-02-01T00:49:27;101929.59;;;4.55;89.21
76637;BME280;65532;52.124;5.480;2023-02-01T00:51:54;101926.63;;;4.58;89.08
76637;BME280;65532;52.124;5.480;2023-02-01T00:54:20;101926.44;;;4.67;89.34
76637;BME280;65532;52.124;5.480;2023-02-01T00:56:47;101924.25;;;4.63;89.15
76637;BME280;65532;52.124;5.480;2023-02-01T00:59:13;101938.69;;;4.62;89.38
76637;BME280;65532;52.124;5.480;2023-02-01T01:01:40;101933.66;;;4.67;89.78
76637;BME280;65532;52.124;5.480;2023-02-01T01:04:06;101930.63;;;4.62;89.46
76637;BME280;65532;52.124;5.480;2023-02-01T01:06:33;101926.28;;;4.61;89.34
76637;BME280;65532;52.124;5.480;2023-02-01T01:09:04;101930.97;;;4.59;90.16
76637;BME280;65532;52.124;5.480;2023-02-01T01:11:34;101917.88;;;4.64;89.61
76637;BME280;65532;52.124;5.480;2023-02-01T01:14:02;101925.28;;;4.78;89.69
76637;BME280;65532;52.124;5.480;2023-02-01T01:16:31;101910.84;;;4.87;89.97
76637;BME280;65532;52.124;5.480;2023-02-01T01:18:58;101905.19;;;4.90;89.36
76637;BME280;65532;52.124;5.480;2023-02-01T01:21:26;101896.09;;;4.99;89.21
76637;BME280;65532;52.124;5.480;2023-02-01T01:23:53;101900.97;;;5.04;89.41
76637;BME280;65532;52.124;5.480;2023-02-01T01:26:22;101905.50;;;5.03;89.79
76637;BME280;65532;52.124;5.480;2023-02-01T01:28:50;101916.56;;;5.08;89.38
76637;BME280;65532;52.124;5.480;2023-02-01T01:31:18;101899.78;;;5.15;89.56
76637;BME280;65532;52.124;5.480;2023-02-01T01:33:48;101893.25;;;5.25;88.59
76637;BME280;65532;52.124;5.480;2023-02-01T01:36:16;101891.03;;;5.29;88.60
76637;BME280;65532;52.124;5.480;2023-02-01T01:38:42;101882.63;;;5.32;87.80
76637;BME280;65532;52.124;5.480;2023-02-01T01:41:20;101889.69;;;5.33;88.25
76637;BME280;65532;52.124;5.480;2023-02-01T01:43:57;101890.53;;;5.33;87.38
76637;BME280;65532;52.124;5.480;2023-02-01T01:46:29;101888.00;;;5.40;87.31
76637;BME280;65532;52.124;5.480;2023-02-01T01:51:28;101908.81;;;5.38;87.52
76637;BME280;65532;52.124;5.480;2023-02-01T01:54:14;101890.16;;;5.45;87.14
76637;BME280;65532;52.124;5.480;2023-02-01T01:56:47;101880.94;;;5.47;87.30
76637;BME280;65532;52.124;5.480;2023-02-01T01:59:15;101878.25;;;5.47;87.16
76637;BME280;65532;52.124;5.480;2023-02-01T02:01:42;101870.34;;;5.54;86.52
76637;BME280;65532;52.124;5.480;2023-02-01T02:04:09;101875.84;;;5.60;86.23
76637;BME280;65532;52.124;5.480;2023-02-01T02:09:21;101870.13;;;5.71;85.99
76637;BME280;65532;52.124;5.480;2023-02-01T02:11:48;101865.75;;;5.70;86.12
76637;BME280;65532;52.124;5.480;2023-02-01T02:14:16;101868.09;;;5.74;85.92
76637;BME280;65532;52.124;5.480;2023-02-01T02:17:16;101869.28;;;5.71;85.90
76637;BME280;65532;52.124;5.480;2023-02-01T02:30:43;101843.69;;;5.83;86.68
76637;BME280;65532;52.124;5.480;2023-02-01T02:36:13;101847.91;;;5.86;86.67
76637;BME280;65532;52.124;5.480;2023-02-01T02:38:58;101841.50;;;5.87;86.91
76637;BME280;65532;52.124;5.480;2023-02-01T02:44:47;101834.94;;;5.89;86.82
76637;BME280;65532;52.124;5.480;2023-02-01T02:48:00;101839.81;;;5.94;86.57
76637;BME280;65532;52.124;5.480;2023-02-01T02:54:03;101832.84;;;6.08;86.50
76637;BME280;65532;52.124;5.480;2023-02-01T02:56:51;101824.78;;;6.08;86.60
76637;BME280;65532;52.124;5.480;2023-02-01T02:59:40;101826.28;;;6.10;86.50
76637;BME280;65532;52.124;5.480;2023-02-01T03:02:27;101809.13;;;6.11;86.25
76637;BME280;65532;52.124;5.480;2023-02-01T03:05:12;101797.34;;;6.12;86.04
76637;BME280;65532;52.124;5.480;2023-02-01T03:10:40;101797.72;;;6.09;86.04
76637;BME280;65532;52.124;5.480;2023-02-01T03:21:26;101807.56;;;5.94;85.57
76637;BME280;65532;52.124;5.480;2023-02-01T03:24:00;101809.78;;;5.90;85.93
76637;BME280;65532;52.124;5.480;2023-02-01T03:26:31;101817.16;;;5.80;86.02
76637;BME280;65532;52.124;5.480;2023-02-01T03:29:12;101794.84;;;5.80;86.00
76637;BME280;65532;52.124;5.480;2023-02-01T03:31:42;101797.22;;;5.75;86.45
76637;BME280;65532;52.124;5.480;2023-02-01T03:34:11;101796.25;;;5.67;86.48
76637;BME280;65532;52.124;5.480;2023-02-01T03:36:46;101795.91;;;5.70;86.12
76637;BME280;65532;52.124;5.480;2023-02-01T03:41:51;101817.72;;;5.67;86.41
76637;BME280;65532;52.124;5.480;2023-02-01T03:44:23;101814.38;;;5.65;86.32
76637;BME280;65532;52.124;5.480;2023-02-01T03:47:05;101824.28;;;5.65;86.56
76637;BME280;65532;52.124;5.480;2023-02-01T03:49:37;101811.41;;;5.60;86.80
76637;BME280;65532;52.124;5.480;2023-02-01T03:52:10;101809.72;;;5.59;86.71
76637;BME280;65532;52.124;5.480;2023-02-01T03:54:38;101808.22;;;5.57;86.96
76637;BME280;65532;52.124;5.480;2023-02-01T03:57:11;101819.16;;;5.47;87.04
76637;BME280;65532;52.124;5.480;2023-02-01T03:59:44;101811.47;;;5.44;87.30
76637;BME280;65532;52.124;5.480;2023-02-01T04:02:11;101814.28;;;5.51;87.19
76637;BME280;65532;52.124;5.480;2023-02-01T04:04:37;101813.63;;;5.49;87.80
76637;BME280;65532;52.124;5.480;2023-02-01T04:07:04;101816.47;;;5.47;87.66
76637;BME280;65532;52.124;5.480;2023-02-01T04:09:31;101819.97;;;5.56;87.64
76637;BME280;65532;52.124;5.480;2023-02-01T04:11:57;101809.38;;;5.62;87.82
76637;BME280;65532;52.124;5.480;2023-02-01T04:14:24;101808.69;;;5.68;87.48
76637;BME280;65532;52.124;5.480;2023-02-01T04:16:50;101807.97;;;5.75;86.91
76637;BME280;65532;52.124;5.480;2023-02-01T04:19:17;101813.47;;;5.81;87.26
76637;BME280;65532;52.124;5.480;2023-02-01T04:21:43;101826.72;;;5.83;87.01
76637;BME280;65532;52.124;5.480;2023-02-01T04:24:10;101829.09;;;5.86;86.96
76637;BME280;65532;52.124;5.480;2023-02-01T04:26:37;101836.63;;;5.90;86.79
76637;BME280;65532;52.124;5.480;2023-02-01T04:29:03;101823.69;;;5.94;86.61
76637;BME280;65532;52.124;5.480;2023-02-01T04:31:30;101827.03;;;5.96;86.49
76637;BME280;65532;52.124;5.480;2023-02-01T04:33:57;101828.69;;;5.97;86.00
76637;BME280;65532;52.124;5.480;2023-02-01T04:36:24;101818.09;;;6.04;85.63
76637;BME280;65532;52.124;5.480;2023-02-01T04:38:51;101805.78;;;6.09;85.95
76637;BME280;65532;52.124;5.480;2023-02-01T04:41:18;101808.84;;;6.06;85.40
76637;BME280;65532;52.124;5.480;2023-02-01T04:43:49;101802.16;;;6.02;85.85
76637;BME280;65532;52.124;5.480;2023-02-01T04:46:16;101801.50;;;6.00;85.28
76637;BME280;65532;52.124;5.480;2023-02-01T04:48:42;101799.97;;;5.97;85.44
76637;BME280;65532;52.124;5.480;2023-02-01T04:51:10;101814.59;;;5.95;85.50
76637;BME280;65532;52.124;5.480;2023-02-01T04:53:36;101813.78;;;5.86;85.72
76637;BME280;65532;52.124;5.480;2023-02-01T04:56:03;101807.25;;;5.81;86.12
76637;BME280;65532;52.124;5.480;2023-02-01T04:58:30;101802.59;;;5.75;86.73
76637;BME280;65532;52.124;5.480;2023-02-01T05:00:56;101803.97;;;5.70;86.52
76637;BME280;65532;52.124;5.480;2023-02-01T05:03:23;101809.00;;;5.65;86.98
76637;BME280;65532;52.124;5.480;2023-02-01T05:05:49;101801.97;;;5.64;87.21
76637;BME280;65532;52.124;5.480;2023-02-01T05:08:16;101796.59;;;5.64;87.24
76637;BME280;65532;52.124;5.480;2023-02-01T05:10:44;101806.50;;;5.64;87.33
76637;BME280;65532;52.124;5.480;2023-02-01T05:13:11;101808.69;;;5.68;87.67
76637;BME280;65532;52.124;5.480;2023-02-01T05:15:55;101802.13;;;5.71;87.51
76637;BME280;65532;52.124;5.480;2023-02-01T05:18:22;101796.25;;;5.67;87.28
76637;BME280;65532;52.124;5.480;2023-02-01T05:20:48;101802.63;;;5.66;87.57
76637;BME280;65532;52.124;5.480;2023-02-01T05:23:15;101795.56;;;5.65;87.45
76637;BME280;65532;52.124;5.480;2023-02-01T05:25:41;101798.25;;;5.65;87.13
76637;BME280;65532;52.124;5.480;2023-02-01T05:28:08;101795.06;;;5.70;87.41
76637;BME280;65532;52.124;5.480;2023-02-01T05:30:34;101797.41;;;5.73;87.21
76637;BME280;65532;52.124;5.480;2023-02-01T05:33:02;101810.00;;;5.72;87.35
76637;BME280;65532;52.124;5.480;2023-02-01T05:35:29;101810.00;;;5.72;87.45
76637;BME280;65532;52.124;5.480;2023-02-01T05:37:56;101807.97;;;5.75;87.22
76637;BME280;65532;52.124;5.480;2023-02-01T05:40:22;101818.00;;;5.81;87.53
76637;BME280;65532;52.124;5.480;2023-02-01T05:42:49;101807.91;;;5.83;87.40
76637;BME280;65532;52.124;5.480;2023-02-01T05:45:16;101820.34;;;5.84;87.40
76637;BME280;65532;52.124;5.480;2023-02-01T05:47:42;101813.28;;;5.83;87.61
76637;BME280;65532;52.124;5.480;2023-02-01T05:50:09;101822.69;;;5.87;87.29
76637;BME280;65532;52.124;5.480;2023-02-01T05:52:35;101826.22;;;5.87;87.18
76637;BME280;65532;52.124;5.480;2023-02-01T05:55:02;101818.81;;;5.89;86.94
76637;BME280;65532;52.124;5.480;2023-02-01T05:57:28;101811.63;;;5.90;86.96
76637;BME280;65532;52.124;5.480;2023-02-01T05:59:56;101823.03;;;5.92;87.50
76637;BME280;65532;52.124;5.480;2023-02-01T06:02:24;101817.81;;;5.90;87.10
76637;BME280;65532;52.124;5.480;2023-02-01T06:04:51;101825.06;;;5.90;87.42
76637;BME280;65532;52.124;5.480;2023-02-01T06:07:17;101820.34;;;5.92;87.44
76637;BME280;65532;52.124;5.480;2023-02-01T06:09:44;101826.56;;;5.92;87.39
76637;BME280;65532;52.124;5.480;2023-02-01T06:12:10;101820.53;;;5.90;87.53
76637;BME280;65532;52.124;5.480;2023-02-01T06:14:37;101821.66;;;5.96;87.69
76637;BME280;65532;52.124;5.480;2023-02-01T06:17:04;101824.16;;;5.97;87.76
76637;BME280;65532;52.124;5.480;2023-02-01T06:19:32;101807.19;;;5.97;87.10
76637;BME280;65532;52.124;5.480;2023-02-01T06:21:58;101803.84;;;5.95;87.59
76637;BME280;65532;52.124;5.480;2023-02-01T06:24:25;101819.63;;;5.98;87.32
76637;BME280;65532;52.124;5.480;2023-02-01T06:26:51;101817.13;;;5.96;87.46
76637;BME280;65532;52.124;5.480;2023-02-01T06:29:18;101821.84;;;5.94;87.50
76637;BME280;65532;52.124;5.480;2023-02-01T06:31:44;101823.69;;;5.94;87.88
76637;BME280;65532;52.124;5.480;2023-02-01T06:34:11;101829.25;;;5.92;87.83
76637;BME280;65532;52.124;5.480;2023-02-01T06:36:37;101830.94;;;5.85;87.83
76637;BME280;65532;52.124;5.480;2023-02-01T06:39:04;101829.47;;;5.75;88.39
76637;BME280;65532;52.124;5.480;2023-02-01T06:41:31;101832.00;;;5.68;88.51
76637;BME280;65532;52.124;5.480;2023-02-01T06:43:57;101830.84;;;5.62;88.58
76637;BME280;65532;52.124;5.480;2023-02-01T06:46:24;101840.75;;;5.62;88.79
76637;BME280;65532;52.124;5.480;2023-02-01T06:48:50;101838.25;;;5.60;88.36
76637;BME280;65532;52.124;5.480;2023-02-01T06:51:24;101841.94;;;5.59;88.58
76637;BME280;65532;52.124;5.480;2023-02-01T06:53:51;101834.25;;;5.56;88.75
76637;BME280;65532;52.124;5.480;2023-02-01T06:56:18;101837.28;;;5.53;88.93
76637;BME280;65532;52.124;5.480;2023-02-01T06:58:46;101834.25;;;5.48;89.05
76637;BME280;65532;52.124;5.480;2023-02-01T07:01:13;101837.47;;;5.44;89.12
76637;BME280;65532;52.124;5.480;2023-02-01T07:03:40;101842.00;;;5.43;88.91
76637;BME280;65532;52.124;5.480;2023-02-01T07:06:08;101834.91;;;5.50;89.04
76637;BME280;65532;52.124;5.480;2023-02-01T07:08:36;101835.59;;;5.52;88.86
76637;BME280;65532;52.124;5.480;2023-02-01T07:11:05;101831.91;;;5.53;89.33
76637;BME280;65532;52.124;5.480;2023-02-01T07:13:32;101835.59;;;5.52;89.03
76637;BME280;65532;52.124;5.480;2023-02-01T07:16:00;101836.59;;;5.51;89.18
76637;BME280;65532;52.124;5.480;2023-02-01T07:18:28;101828.53;;;5.51;88.90
76637;BME280;65532;52.124;5.480;2023-02-01T07:20:56;101837.28;;;5.53;88.95
76637;BME280;65532;52.124;5.480;2023-02-01T07:23:23;101824.69;;;5.54;89.24
76637;BME280;65532;52.124;5.480;2023-02-01T07:25:53;101831.22;;;5.51;89.11
76637;BME280;65532;52.124;5.480;2023-02-01T07:28:20;101845.16;;;5.55;89.21
76637;BME280;65532;52.124;5.480;2023-02-01T07:30:47;101835.75;;;5.59;89.40
76637;BME280;65532;52.124;5.480;2023-02-01T07:33:19;101838.59;;;5.57;89.11
76637;BME280;65532;52.124;5.480;2023-02-01T07:35:46;101842.47;;;5.55;89.04
76637;BME280;65532;52.124;5.480;2023-02-01T07:38:12;101850.72;;;5.53;89.50
76637;BME280;65532;52.124;5.480;2023-02-01T07:40:39;101835.09;;;5.57;89.20
76637;BME280;65532;52.124;5.480;2023-02-01T07:43:06;101841.13;;;5.59;89.16
76637;BME280;65532;52.124;5.480;2023-02-01T07:45:35;101839.94;;;5.61;89.22
76637;BME280;65532;52.124;5.480;2023-02-01T07:48:02;101839.94;;;5.61;89.00
76637;BME280;65532;52.124;5.480;2023-02-01T07:50:29;101838.91;;;5.62;88.89
76637;BME280;65532;52.124;5.480;2023-02-01T07:52:59;101834.38;;;5.63;88.94
76637;BME280;65532;52.124;5.480;2023-02-01T07:55:26;101834.19;;;5.64;89.04
76637;BME280;65532;52.124;5.480;2023-02-01T07:57:56;101844.94;;;5.64;88.68
76637;BME280;65532;52.124;5.480;2023-02-01T08:00:23;101845.28;;;5.69;88.80
76637;BME280;65532;52.124;5.480;2023-02-01T08:03:08;101839.22;;;5.67;88.81
76637;BME280;65532;52.124;5.480;2023-02-01T08:05:34;101856.50;;;5.73;88.29
76637;BME280;65532;52.124;5.480;2023-02-01T08:08:03;101845.59;;;5.75;88.44
76637;BME280;65532;52.124;5.480;2023-02-01T08:10:29;101861.16;;;5.79;88.46
76637;BME280;65532;52.124;5.480;2023-02-01T08:12:59;101854.28;;;5.85;88.43
76637;BME280;65532;52.124;5.480;2023-02-01T08:15:27;101861.00;;;5.81;88.44
76637;BME280;65532;52.124;5.480;2023-02-01T08:17:54;101848.94;;;5.77;88.82
76637;BME280;65532;52.124;5.480;2023-02-01T08:20:21;101845.22;;;5.78;88.62
76637;BME280;65532;52.124;5.480;2023-02-01T08:22:52;101850.59;;;5.78;88.91
76637;BME280;65532;52.124;5.480;2023-02-01T08:25:20;101849.22;;;5.82;88.44
76637;BME280;65532;52.124;5.480;2023-02-01T08:27:47;101846.19;;;5.93;88.39
76637;BME280;65532;52.124;5.480;2023-02-01T08:30:15;101845.72;;;6.20;88.64
76637;BME280;65532;52.124;5.480;2023-02-01T08:32:41;101834.84;;;6.37;87.46
76637;BME280;65532;52.124;5.480;2023-02-01T08:35:08;101834.47;;;6.40;87.19
76637;BME280;65532;52.124;5.480;2023-02-01T08:37:35;101841.88;;;6.60;87.47
76637;BME280;65532;52.124;5.480;2023-02-01T08:40:02;101833.00;;;6.98;85.45
76637;BME280;65532;52.124;5.480;2023-02-01T08:42:29;101837.88;;;6.79;84.94
76637;BME280;65532;52.124;5.480;2023-02-01T08:45:14;101831.31;;;6.59;85.58
76637;BME280;65532;52.124;5.480;2023-02-01T08:47:41;101832.69;;;6.55;85.92
76637;BME280;65532;52.124;5.480;2023-02-01T08:50:08;101830.19;;;6.53;86.22
76637;BME280;65532;52.124;5.480;2023-02-01T08:52:35;101833.34;;;6.57;86.47
76637;BME280;65532;52.124;5.480;2023-02-01T08:55:04;101835.69;;;6.98;86.12
76637;BME280;65532;52.124;5.480;2023-02-01T08:57:31;101827.34;;;7.22;84.22
76637;BME280;65532;52.124;5.480;2023-02-01T08:59:57;101828.75;;;7.18;83.08
76637;BME280;65532;52.124;5.480;2023-02-01T09:02:24;101824.38;;;7.02;83.86
76637;BME280;65532;52.124;5.480;2023-02-01T09:04:50;101843.47;;;6.93;84.35
76637;BME280;65532;52.124;5.480;2023-02-01T09:07:17;101828.31;;;6.91;84.37
76637;BME280;65532;52.124;5.480;2023-02-01T09:09:45;101820.81;;;6.87;84.41
76637;BME280;65532;52.124;5.480;2023-02-01T09:12:11;101809.94;;;6.80;84.31
76637;BME280;65532;52.124;5.480;2023-02-01T09:14:37;101819.97;;;6.86;84.68
76637;BME280;65532;52.124;5.480;2023-02-01T09:17:04;101812.56;;;7.03;84.70
76637;BME280;65532;52.124;5.480;2023-02-01T09:19:32;101828.63;;;7.85;83.67
76637;BME280;65532;52.124;5.480;2023-02-01T09:21:58;101826.44;;;8.31;80.22
76637;BME280;65532;52.124;5.480;2023-02-01T09:24:25;101811.56;;;8.35;78.84
76637;BME280;65532;52.124;5.480;2023-02-01T09:26:51;101820.94;;;8.03;79.55
76637;BME280;65532;52.124;5.480;2023-02-01T09:29:18;101815.72;;;7.80;79.56
76637;BME280;65532;52.124;5.480;2023-02-01T09:31:45;101817.97;;;7.77;80.85
76637;BME280;65532;52.124;5.480;2023-02-01T09:34:27;101821.13;;;7.66;80.10
76637;BME280;65532;52.124;5.480;2023-02-01T09:36:53;101835.25;;;7.53;80.54
76637;BME280;65532;52.124;5.480;2023-02-01T09:39:20;101823.75;;;7.44;81.03
76637;BME280;65532;52.124;5.480;2023-02-01T09:44:29;101823.94;;;7.28;81.15
76637;BME280;65532;52.124;5.480;2023-02-01T09:47:16;101819.47;;;7.20;81.69
76637;BME280;65532;52.124;5.480;2023-02-01T09:50:04;101814.44;;;7.17;81.84
76637;BME280;65532;52.124;5.480;2023-02-01T09:52:36;101811.94;;;7.16;81.74
76637;BME280;65532;52.124;5.480;2023-02-01T09:55:12;101830.97;;;7.14;82.01
76637;BME280;65532;52.124;5.480;2023-02-01T09:57:51;101822.44;;;7.11;82.19
76637;BME280;65532;52.124;5.480;2023-02-01T10:00:24;101805.16;;;7.05;82.69
76637;BME280;65532;52.124;5.480;2023-02-01T10:02:54;101816.47;;;7.01;82.98
76637;BME280;65532;52.124;5.480;2023-02-01T10:05:37;101811.84;;;6.95;82.68
76637;BME280;65532;52.124;5.480;2023-02-01T10:10:47;101818.22;;;6.94;83.48
76637;BME280;65532;52.124;5.480;2023-02-01T10:18:34;101798.44;;;6.86;85.31
76637;BME280;65532;52.124;5.480;2023-02-01T10:21:17;101796.31;;;6.82;85.46
76637;BME280;65532;52.124;5.480;2023-02-01T10:24:40;101812.81;;;6.79;85.80
76637;BME280;65532;52.124;5.480;2023-02-01T10:27:07;101827.19;;;6.71;86.59
76637;BME280;65532;52.124;5.480;2023-02-01T10:29:41;101826.41;;;6.63;87.04
76637;BME280;65532;52.124;5.480;2023-02-01T10:32:13;101832.69;;;6.55;88.16
76637;BME280;65532;52.124;5.480;2023-02-01T10:34:41;101812.25;;;6.46;88.29
76637;BME280;65532;52.124;5.480;2023-02-01T10:37:28;101812.59;;;6.43;89.00
76637;BME280;65532;52.124;5.480;2023-02-01T10:39:58;101815.94;;;6.45;89.09
76637;BME280;65532;52.124;5.480;2023-02-01T10:42:29;101811.22;;;6.47;88.90
76637;BME280;65532;52.124;5.480;2023-02-01T10:44:59;101808.91;;;6.44;89.09
76637;BME280;65532;52.124;5.480;2023-02-01T10:47:27;101797.31;;;6.43;89.48
76637;BME280;65532;52.124;5.480;2023-02-01T10:52:36;101793.59;;;6.44;88.97
76637;BME280;65532;52.124;5.480;2023-02-01T10:55:26;101806.84;;;6.46;89.10
76637;BME280;65532;52.124;5.480;2023-02-01T10:58:01;101802.16;;;6.48;88.97
76637;BME280;65532;52.124;5.480;2023-02-01T11:00:28;101794.38;;;6.53;88.95
76637;BME280;65532;52.124;5.480;2023-02-01T11:03:00;101790.94;;;6.59;88.81
76637;BME280;65532;52.124;5.480;2023-02-01T11:05:27;101800.63;;;6.68;88.72
76637;BME280;65532;52.124;5.480;2023-02-01T11:07:54;101792.28;;;6.78;88.28
76637;BME280;65532;52.124;5.480;2023-02-01T11:10:36;101783.97;;;6.87;87.90
76637;BME280;65532;52.124;5.480;2023-02-01T11:13:04;101770.97;;;6.91;87.40
76637;BME280;65532;52.124;5.480;2023-02-01T11:15:31;101772.81;;;6.90;87.02
76637;BME280;65532;52.124;5.480;2023-02-01T11:18:14;101778.50;;;6.96;87.07
76637;BME280;65532;52.124;5.480;2023-02-01T11:20:42;101768.00;;;7.01;86.84
76637;BME280;65532;52.124;5.480;2023-02-01T11:23:23;101786.84;;;7.01;87.29
76637;BME280;65532;52.124;5.480;2023-02-01T11:25:53;101768.75;;;6.95;87.55
76637;BME280;65532;52.124;5.480;2023-02-01T11:28:23;101762.53;;;6.94;86.90
76637;BME280;65532;52.124;5.480;2023-02-01T11:30:51;101764.69;;;6.99;87.06
76637;BME280;65532;52.124;5.480;2023-02-01T11:33:22;101778.03;;;7.07;86.94
76637;BME280;65532;52.124;5.480;2023-02-01T11:35:51;101782.69;;;7.13;86.48
76637;BME280;65532;52.124;5.480;2023-02-01T11:38:26;101781.88;;;7.12;86.08
76637;BME280;65532;52.124;5.480;2023-02-01T11:40:53;101776.56;;;7.19;86.65
76637;BME280;65532;52.124;5.480;2023-02-01T11:43:27;101771.75;;;7.29;86.33
76637;BME280;65532;52.124;5.480;2023-02-01T11:46:02;101770.59;;;7.38;86.35
76637;BME280;65532;52.124;5.480;2023-02-01T11:48:31;101767.53;;;7.41;85.35
76637;BME280;65532;52.124;5.480;2023-02-01T11:54:14;101765.00;;;7.55;85.59
76637;BME280;65532;52.124;5.480;2023-02-01T12:07:16;101776.34;;;7.65;84.09
76637;BME280;65532;52.124;5.480;2023-02-01T12:10:00;101773.44;;;7.66;83.44
76637;BME280;65532;52.124;5.480;2023-02-01T12:12:50;101757.34;;;7.73;83.95
76637;BME280;65532;52.124;5.480;2023-02-01T12:26:02;101738.28;;;7.89;82.79
76637;BME280;65532;52.124;5.480;2023-02-01T12:39:31;101752.97;;;7.72;82.57
76637;BME280;65532;52.124;5.480;2023-02-01T12:42:22;101751.31;;;7.71;83.25
76637;BME280;65532;52.124;5.480;2023-02-01T12:44:56;101761.25;;;7.70;83.20
76637;BME280;65532;52.124;5.480;2023-02-01T12:50:15;101755.16;;;7.62;83.12
76637;BME280;65532;52.124;5.480;2023-02-01T12:52:50;101762.59;;;7.60;83.48
76637;BME280;65532;52.124;5.480;2023-02-01T12:55:22;101759.25;;;7.58;83.69
76637;BME280;65532;52.124;5.480;2023-02-01T12:58:09;101745.78;;;7.58;83.19
76637;BME280;65532;52.124;5.480;2023-02-01T13:00:57;101766.03;;;7.54;83.81
76637;BME280;65532;52.124;5.480;2023-02-01T13:04:36;101756.28;;;7.53;83.54
76637;BME280;65532;52.124;5.480;2023-02-01T13:06:40;101762.13;;;7.56;84.22
76637;BME280;65532;52.124;5.480;2023-02-01T13:11:44;101755.59;;;7.65;84.16
76637;BME280;65532;52.124;5.480;2023-02-01T13:14:42;101739.81;;;7.62;84.23
76637;BME280;65532;52.124;5.480;2023-02-01T13:17:22;101757.22;;;7.60;84.00
76637;BME280;65532;52.124;5.480;2023-02-01T13:20:13;101755.69;;;7.57;84.08
76637;BME280;65532;52.124;5.480;2023-02-01T13:23:10;101755.06;;;7.55;83.81
76637;BME280;65532;52.124;5.480;2023-02-01T13:25:43;101754.59;;;7.51;84.05
76637;BME280;65532;52.124;5.480;2023-02-01T13:28:28;101751.28;;;7.49;84.35
76637;BME280;65532;52.124;5.480;2023-02-01T13:36:49;101771.53;;;7.45;84.45
76637;BME280;65532;52.124;5.480;2023-02-01T13:42:28;101765.13;;;7.46;84.96
76637;BME280;65532;52.124;5.480;2023-02-01T13:45:01;101770.13;;;7.49;84.99
76637;BME280;65532;52.124;5.480;2023-02-01T13:47:44;101764.16;;;7.54;85.23
76637;BME280;65532;52.124;5.480;2023-02-01T13:57:50;101763.13;;;7.70;84.04
76637;BME280;65532;52.124;5.480;2023-02-01T14:03:02;101764.69;;;7.79;83.47
76637;BME280;65532;52.124;5.480;2023-02-01T14:13:26;101770.97;;;7.86;82.91
76637;BME280;65532;52.124;5.480;2023-02-01T14:31:58;101768.06;;;7.66;85.04
76637;BME280;65532;52.124;5.480;2023-02-01T14:44:48;101752.72;;;7.67;85.53
76637;BME280;65532;52.124;5.480;2023-02-01T14:47:26;101767.59;;;7.63;85.67
76637;BME280;65532;52.124;5.480;2023-02-01T14:49:56;101756.19;;;7.61;85.97
76637;BME280;65532;52.124;5.480;2023-02-01T14:53:01;101769.66;;;7.61;85.83
76637;BME280;65532;52.124;5.480;2023-02-01T14:55:35;101764.91;;;7.63;86.32
76637;BME280;65532;52.124;5.480;2023-02-01T14:58:16;101762.59;;;7.60;86.14
76637;BME280;65532;52.124;5.480;2023-02-01T15:00:55;101766.69;;;7.56;86.80
76637;BME280;65532;52.124;5.480;2023-02-01T15:03:42;101758.91;;;7.46;87.81
76637;BME280;65532;52.124;5.480;2023-02-01T15:08:48;101765.78;;;7.34;88.17
76637;BME280;65532;52.124;5.480;2023-02-01T15:11:16;101774.06;;;7.32;88.67
76637;BME280;65532;52.124;5.480;2023-02-01T15:13:51;101775.91;;;7.32;88.48
76637;BME280;65532;52.124;5.480;2023-02-01T15:16:22;101784.19;;;7.30;88.75
76637;BME280;65532;52.124;5.480;2023-02-01T15:18:49;101773.41;;;7.30;88.77
76637;BME280;65532;52.124;5.480;2023-02-01T15:21:19;101786.13;;;7.36;88.50
76637;BME280;65532;52.124;5.480;2023-02-01T15:24:20;101786.75;;;7.38;88.38
76637;BME280;65532;52.124;5.480;2023-02-01T15:26:47;101795.50;;;7.40;88.13
76637;BME280;65532;52.124;5.480;2023-02-01T15:29:14;101788.72;;;7.44;88.26
76637;BME280;65532;52.124;5.480;2023-02-01T15:31:43;101789.75;;;7.43;88.39
76637;BME280;65532;52.124;5.480;2023-02-01T15:34:11;101786.22;;;7.43;88.33
76637;BME280;65532;52.124;5.480;2023-02-01T15:36:38;101806.19;;;7.48;88.19
76637;BME280;65532;52.124;5.480;2023-02-01T15:39:16;101804.97;;;7.51;88.03
76637;BME280;65532;52.124;5.480;2023-02-01T15:41:47;101811.38;;;7.50;88.05
76637;BME280;65532;52.124;5.480;2023-02-01T15:44:28;101816.78;;;7.50;88.64
76637;BME280;65532;52.124;5.480;2023-02-01T15:46:55;101809.34;;;7.52;88.26
76637;BME280;65532;52.124;5.480;2023-02-01T15:49:35;101809.78;;;7.56;88.01